Time;durP1;ratioP1;P1;durP2;ratioP2;P2;SDS_P1;SDS_P2;PMS_P1;PMS_P2;Temp;Humidity;BMP_temperature;BMP_pressure;BME280_temperature;BME280_humidity;BME280_pressure;Samples;Min_cycle;Max_cycle;Signal;HPM_P1;HPM_P2
2021/12/10 00:02:11;;;;;;;2.10;0.90;;;3.70;99.90;;;;;;10345030;28;20743;-64
2021/12/10 00:07:24;;;;;;;5.70;1.52;;;3.60;99.90;;;;;;10348105;28;20560;-64
2021/12/10 00:12:40;;;;;;;3.80;1.33;;;3.60;99.90;;;;;;10346130;28;20099;-64
2021/12/10 00:17:42;;;;;;;2.58;1.10;;;3.60;99.90;;;;;;10345971;28;20053;-64
2021/12/10 00:22:54;;;;;;;2.60;1.27;;;3.70;99.90;;;;;;10346679;28;20166;-64
2021/12/10 00:27:56;;;;;;;2.85;1.30;;;3.70;99.90;;;;;;10347098;28;20050;-64
2021/12/10 00:33:15;;;;;;;11.98;1.92;;;3.60;99.90;;;;;;10345588;28;20551;-64
2021/12/10 00:38:16;;;;;;;3.60;0.95;;;3.60;99.90;;;;;;10346862;28;20091;-64
2021/12/10 00:43:18;;;;;;;4.05;1.10;;;3.60;99.90;;;;;;10347095;28;20069;-64
2021/12/10 00:48:20;;;;;;;3.40;1.15;;;3.60;99.90;;;;;;10345565;28;20052;-64
2021/12/10 00:53:22;;;;;;;3.03;1.38;;;3.60;99.90;;;;;;10346892;28;20089;-65
2021/12/10 00:58:25;;;;;;;3.05;0.90;;;3.60;99.90;;;;;;10346086;28;20048;-64
2021/12/10 01:03:33;;;;;;;3.15;1.38;;;3.60;99.90;;;;;;10344816;28;20050;-64
2021/12/10 01:08:37;;;;;;;6.15;1.60;;;3.60;99.90;;;;;;10343588;28;20077;-64
2021/12/10 01:13:45;;;;;;;6.18;1.23;;;3.70;99.90;;;;;;10346025;28;20060;-64
2021/12/10 01:24:49;;;;;;;3.15;1.23;;;3.70;99.90;;;;;;10343217;28;20073;-64
2021/12/10 01:29:43;;;;;;;4.07;1.33;;;3.80;99.90;;;;;;10344925;28;20085;-64
2021/12/10 01:34:45;;;;;;;4.10;1.40;;;3.80;99.90;;;;;;10345077;28;20100;-64
2021/12/10 01:39:47;;;;;;;4.05;1.15;;;3.80;99.90;;;;;;10345464;28;20069;-64
2021/12/10 01:44:51;;;;;;;8.57;1.70;;;3.80;99.90;;;;;;10345052;28;20101;-64
2021/12/10 01:49:54;;;;;;;2.70;1.17;;;3.80;99.90;;;;;;10345231;28;20061;-64
2021/12/10 01:54:58;;;;;;;5.22;1.10;;;3.70;99.90;;;;;;10343914;28;20132;-64
2021/12/10 02:00:01;;;;;;;7.45;0.98;;;3.80;99.90;;;;;;10343049;28;20065;-64
2021/12/10 02:05:09;;;;;;;7.10;1.33;;;3.80;99.90;;;;;;10344377;28;20177;-64
2021/12/10 02:10:13;;;;;;;6.32;1.23;;;3.80;99.90;;;;;;10342475;28;20062;-64
2021/12/10 02:15:16;;;;;;;4.75;1.20;;;3.80;99.90;;;;;;10347739;28;20214;-64
2021/12/10 02:20:25;;;;;;;7.85;1.30;;;3.80;99.90;;;;;;10352069;28;20053;-64
2021/12/10 02:25:29;;;;;;;10.93;1.42;;;3.80;99.90;;;;;;10350618;28;20096;-64
2021/12/10 02:30:31;;;;;;;5.30;0.90;;;3.80;99.90;;;;;;10348881;28;20081;-64
2021/12/10 02:35:33;;;;;;;3.50;0.93;;;3.80;99.90;;;;;;10331344;28;20049;-64
2021/12/10 02:40:37;;;;;;;10.32;0.90;;;3.90;99.90;;;;;;10346953;28;20058;-64
2021/12/10 02:45:46;;;;;;;5.72;1.05;;;3.90;99.90;;;;;;10350040;28;20049;-64
2021/12/10 02:50:48;;;;;;;5.97;0.80;;;3.90;99.90;;;;;;10350951;28;20054;-64
2021/12/10 02:55:50;;;;;;;2.03;0.82;;;4.00;99.90;;;;;;10332296;28;20136;-64
2021/12/10 03:00:52;;;;;;;8.38;1.42;;;4.00;99.90;;;;;;10349502;28;20115;-64
2021/12/10 03:05:55;;;;;;;6.38;1.13;;;4.00;99.90;;;;;;10350954;28;20520;-64
2021/12/10 03:10:56;;;;;;;10.43;1.05;;;4.00;99.90;;;;;;10348488;28;20088;-64
2021/12/10 03:15:58;;;;;;;3.60;0.73;;;4.00;99.90;;;;;;10348934;28;20041;-64
2021/12/10 03:21:01;;;;;;;3.08;0.73;;;3.90;99.90;;;;;;10334408;28;20099;-65
2021/12/10 03:26:03;;;;;;;5.15;0.95;;;3.90;99.90;;;;;;10347809;28;20565;-65
2021/12/10 03:31:05;;;;;;;4.50;0.68;;;3.90;99.90;;;;;;10348242;28;20184;-65
2021/12/10 03:36:08;;;;;;;5.25;0.63;;;3.90;99.90;;;;;;10349201;28;20050;-65
2021/12/10 03:41:12;;;;;;;2.15;0.60;;;3.90;99.90;;;;;;10329564;28;20460;-65
2021/12/10 03:46:14;;;;;;;6.28;0.50;;;4.00;99.90;;;;;;10346877;28;20096;-65
2021/12/10 03:51:24;;;;;;;4.70;0.43;;;3.90;99.90;;;;;;10348455;28;20041;-65
2021/12/10 03:56:28;;;;;;;3.67;0.50;;;4.00;99.90;;;;;;10348390;28;20452;-65
2021/12/10 04:01:33;;;;;;;2.85;0.50;;;3.90;99.90;;;;;;10341100;28;20144;-65
2021/12/10 04:06:35;;;;;;;6.82;0.60;;;4.00;99.90;;;;;;10347551;28;20041;-65
2021/12/10 04:11:37;;;;;;;2.58;0.30;;;4.00;99.90;;;;;;10348279;28;20069;-65
2021/12/10 04:16:39;;;;;;;1.48;0.40;;;3.90;99.90;;;;;;10324165;28;20124;-65
2021/12/10 04:21:42;;;;;;;3.40;0.40;;;3.80;99.90;;;;;;10346967;28;20053;-65
2021/12/10 04:26:45;;;;;;;10.68;0.70;;;3.60;99.90;;;;;;10347708;28;20397;-65
2021/12/10 04:31:50;;;;;;;5.78;0.55;;;3.40;99.90;;;;;;10340610;28;20128;-64
2021/12/10 04:36:55;;;;;;;2.95;0.70;;;3.30;99.90;;;;;;10347416;28;20073;-65
2021/12/10 04:41:57;;;;;;;4.95;0.60;;;3.20;99.90;;;;;;10345854;28;20140;-65
2021/12/10 04:46:59;;;;;;;6.43;0.65;;;3.10;99.90;;;;;;10346084;28;20554;-64
2021/12/10 04:52:02;;;;;;;2.67;0.50;;;3.10;99.90;;;;;;10345128;28;20129;-63
2021/12/10 04:57:04;;;;;;;4.78;1.50;;;3.10;99.90;;;;;;10345465;28;20054;-63
2021/12/10 05:02:09;;;;;;;5.35;0.90;;;3.00;99.90;;;;;;10346341;28;20054;-63
2021/12/10 05:07:13;;;;;;;7.93;1.30;;;3.00;99.90;;;;;;10345906;28;20038;-64
2021/12/10 05:12:16;;;;;;;5.95;0.90;;;3.00;99.90;;;;;;10345666;28;20545;-62
2021/12/10 05:17:17;;;;;;;7.75;1.08;;;3.00;99.90;;;;;;10344732;28;20057;-62
2021/12/10 05:22:19;;;;;;;6.20;1.42;;;2.90;99.90;;;;;;10343054;28;20089;-62
2021/12/10 05:27:21;;;;;;;7.40;1.05;;;2.90;99.90;;;;;;10345913;28;20143;-62
2021/12/10 05:32:22;;;;;;;5.57;1.20;;;2.90;99.90;;;;;;10345017;28;20042;-62
2021/12/10 05:37:24;;;;;;;8.93;1.20;;;2.80;99.90;;;;;;10345892;28;20081;-63
2021/12/10 05:42:26;;;;;;;5.97;1.27;;;2.90;99.90;;;;;;10344722;28;20077;-62
2021/12/10 05:47:28;;;;;;;12.85;1.10;;;2.80;99.90;;;;;;10349520;28;20069;-62
2021/12/10 05:52:30;;;;;;;8.63;0.85;;;2.60;99.90;;;;;;10351572;28;20092;-62
2021/12/10 05:57:32;;;;;;;5.07;1.27;;;2.50;99.90;;;;;;10351496;28;20054;-62
2021/12/10 06:02:33;;;;;;;6.30;1.90;;;2.40;99.90;;;;;;10350887;28;20103;-62
2021/12/10 06:07:38;;;;;;;4.80;1.50;;;2.20;99.90;;;;;;10352102;28;20558;-62
2021/12/10 06:12:41;;;;;;;4.90;1.45;;;2.10;99.90;;;;;;10334695;28;20053;-62
2021/12/10 06:17:43;;;;;;;7.07;1.63;;;2.00;99.90;;;;;;10350264;28;20065;-64
2021/12/10 06:22:46;;;;;;;7.85;1.35;;;1.90;99.90;;;;;;10351449;28;20141;-64
2021/12/10 06:27:47;;;;;;;6.70;1.15;;;1.80;99.90;;;;;;10353125;28;20050;-65
2021/12/10 06:32:51;;;;;;;3.90;1.13;;;1.70;99.90;;;;;;10349678;28;20073;-64
2021/12/10 06:37:54;;;;;;;1.85;1.00;;;1.60;99.90;;;;;;10351070;28;20070;-65
2021/12/10 06:43:00;;;;;;;2.90;1.27;;;1.60;99.90;;;;;;10348190;28;20373;-65
2021/12/10 06:48:05;;;;;;;3.67;1.58;;;1.50;99.90;;;;;;10348327;28;20038;-65
2021/12/10 06:53:07;;;;;;;9.25;1.25;;;1.50;99.90;;;;;;10350234;28;20042;-65
2021/12/10 06:58:09;;;;;;;3.78;1.40;;;1.40;99.90;;;;;;10347448;28;20524;-64
2021/12/10 07:03:22;;;;;;;3.92;1.05;;;1.40;99.90;;;;;;10347117;28;20050;-64
2021/12/10 07:08:26;;;;;;;6.95;1.48;;;1.40;99.90;;;;;;10345960;28;20057;-64
2021/12/10 07:13:28;;;;;;;4.13;1.55;;;1.40;99.90;;;;;;10350824;28;20080;-63
2021/12/10 07:18:29;;;;;;;6.70;1.27;;;1.30;99.90;;;;;;10348828;28;20077;-63
2021/12/10 07:23:31;;;;;;;7.28;1.48;;;1.30;99.90;;;;;;10348011;28;20097;-63
2021/12/10 07:28:33;;;;;;;9.80;3.50;;;1.30;99.90;;;;;;10349657;28;20518;-63
2021/12/10 07:33:35;;;;;;;4.70;1.67;;;1.30;99.90;;;;;;10348582;28;20049;-65
2021/12/10 07:38:37;;;;;;;9.38;1.48;;;1.30;99.90;;;;;;10349333;28;20500;-65
2021/12/10 07:43:39;;;;;;;2.22;1.17;;;1.30;99.90;;;;;;10347975;28;20061;-65
2021/12/10 07:48:43;;;;;;;6.00;1.48;;;1.30;99.90;;;;;;10348945;28;20042;-65
2021/12/10 07:53:45;;;;;;;5.88;1.48;;;1.30;99.90;;;;;;10345687;28;20117;-65
2021/12/10 07:58:47;;;;;;;9.38;1.33;;;1.30;99.90;;;;;;10344713;28;20131;-65
2021/12/10 08:03:48;;;;;;;3.35;1.30;;;1.30;99.90;;;;;;10344918;28;20535;-65
2021/12/10 08:08:50;;;;;;;5.55;1.38;;;1.30;99.90;;;;;;10347807;28;20081;-65
2021/12/10 08:13:53;;;;;;;3.85;1.20;;;1.30;99.90;;;;;;10347262;28;20042;-65
2021/12/10 08:18:56;;;;;;;3.67;0.85;;;1.30;99.90;;;;;;10347158;28;20057;-65
2021/12/10 08:23:59;;;;;;;15.95;2.55;;;1.40;99.90;;;;;;10346958;28;20467;-65
2021/12/10 08:29:01;;;;;;;6.90;1.75;;;1.40;99.90;;;;;;10343736;28;20127;-65
2021/12/10 08:34:04;;;;;;;5.95;0.93;;;1.50;99.90;;;;;;10344867;28;20480;-65
2021/12/10 08:39:10;;;;;;;2.85;0.80;;;1.50;99.90;;;;;;10345345;28;20054;-65
2021/12/10 08:44:13;;;;;;;3.88;1.00;;;1.60;99.90;;;;;;10345017;28;20499;-65
2021/12/10 08:49:15;;;;;;;4.80;1.02;;;1.70;99.90;;;;;;10340476;28;20076;-65
2021/12/10 08:54:18;;;;;;;4.65;1.00;;;1.70;99.90;;;;;;10344186;28;20135;-65
2021/12/10 08:59:23;;;;;;;6.72;1.08;;;1.80;99.90;;;;;;10326953;28;20124;-66
2021/12/10 09:04:27;;;;;;;3.92;1.23;;;1.80;99.90;;;;;;10342571;28;20045;-65
2021/12/10 09:09:30;;;;;;;9.32;1.08;;;1.90;99.90;;;;;;10346718;28;20127;-65
2021/12/10 09:14:37;;;;;;;6.30;1.70;;;1.90;99.90;;;;;;10344139;28;20054;-65
2021/12/10 09:19:41;;;;;;;3.20;1.08;;;1.90;99.90;;;;;;10346112;28;20112;-65
2021/12/10 09:24:43;;;;;;;1.45;0.70;;;2.00;99.90;;;;;;10349703;28;20046;-65
2021/12/10 09:29:47;;;;;;;5.28;0.80;;;2.00;99.90;;;;;;10349771;28;20093;-64
2021/12/10 09:34:50;;;;;;;5.10;1.00;;;2.00;99.90;;;;;;10353395;28;20050;-64
2021/12/10 09:39:52;;;;;;;2.17;0.80;;;2.10;99.90;;;;;;10352298;28;20104;-64
2021/12/10 09:44:54;;;;;;;3.17;0.77;;;2.20;99.90;;;;;;10351518;28;20432;-64
2021/12/10 09:49:56;;;;;;;0.98;0.50;;;2.30;99.90;;;;;;10333929;28;20108;-64
2021/12/10 09:54:58;;;;;;;3.35;0.90;;;2.40;99.90;;;;;;10350763;28;20096;-64
2021/12/10 10:00:04;;;;;;;7.28;1.05;;;2.60;99.90;;;;;;10352561;28;20073;-64
2021/12/10 10:05:08;;;;;;;14.15;2.58;;;2.60;99.90;;;;;;10351300;28;20049;-62
2021/12/10 10:10:15;;;;;;;6.72;2.33;;;2.80;99.90;;;;;;10351925;28;20050;-62
2021/12/10 10:15:21;;;;;;;5.40;1.05;;;3.00;99.90;;;;;;10352914;28;20065;-62
2021/12/10 10:20:31;;;;;;;4.38;1.65;;;3.10;99.90;;;;;;10351577;28;20052;-63
2021/12/10 10:25:34;;;;;;;7.57;1.00;;;3.30;99.90;;;;;;10348972;28;20515;-62
2021/12/10 10:30:42;;;;;;;1.75;0.60;;;3.40;99.90;;;;;;10351741;28;20069;-63
2021/12/10 10:35:55;;;;;;;4.20;1.15;;;3.60;99.90;;;;;;10350778;28;20570;-63
2021/12/10 10:41:01;;;;;;;5.18;1.00;;;3.70;99.90;;;;;;10311814;28;20116;-63
2021/12/10 10:46:03;;;;;;;1.48;0.55;;;3.90;99.90;;;;;;10349241;28;20496;-63
2021/12/10 10:51:10;;;;;;;2.58;0.60;;;4.10;99.90;;;;;;10348448;28;20144;-63
2021/12/10 10:56:24;;;;;;;1.50;0.57;;;4.20;99.90;;;;;;10344648;28;20050;-63
2021/12/10 11:01:40;;;;;;;1.38;0.50;;;4.20;99.90;;;;;;10348589;28;20554;-63
2021/12/10 11:07:15;;;;;;;3.05;0.75;;;4.40;99.90;;;;;;10346724;28;20100;-63
2021/12/10 11:12:22;;;;;;;2.90;0.50;;;4.50;99.90;;;;;;10350921;28;20053;-63
2021/12/10 11:17:41;;;;;;;1.77;0.50;;;4.50;99.90;;;;;;10344541;28;20084;-63
2021/12/10 11:22:48;;;;;;;5.53;0.60;;;4.50;99.90;;;;;;10330722;28;20128;-62
2021/12/10 11:27:51;;;;;;;1.87;0.50;;;4.50;99.10;;;;;;10349268;28;26548;-63
2021/12/10 11:33:01;;;;;;;4.72;0.75;;;4.50;98.90;;;;;;10347061;28;20041;-63
2021/12/10 11:38:32;;;;;;;2.85;0.50;;;4.40;97.70;;;;;;10345861;28;20042;-62
2021/12/10 11:44:27;;;;;;;2.00;0.70;;;4.50;99.00;;;;;;10343141;28;20535;-63
2021/12/10 11:49:38;;;;;;;5.30;0.70;;;4.70;98.70;;;;;;10222052;28;20078;-62
2021/12/10 11:54:51;;;;;;;4.60;1.00;;;4.70;97.70;;;;;;10328044;28;20139;-63
2021/12/10 12:00:22;;;;;;;2.80;0.90;;;4.80;97.60;;;;;;10348168;28;20400;-63
2021/12/10 12:05:36;;;;;;;3.13;0.55;;;5.00;96.70;;;;;;10344809;28;20045;-63
2021/12/10 12:10:44;;;;;;;1.90;1.25;;;5.00;97.00;;;;;;10342513;28;20046;-64
2021/12/10 12:15:54;;;;;;;2.95;0.77;;;5.00;95.70;;;;;;10348330;28;20160;-60
2021/12/10 12:20:57;;;;;;;1.35;0.50;;;5.10;95.80;;;;;;10346053;28;20670;-62
2021/12/10 12:26:15;;;;;;;2.65;0.70;;;5.00;95.20;;;;;;10347866;28;20546;-63
2021/12/10 12:31:50;;;;;;;1.73;0.50;;;4.90;94.40;;;;;;10343938;28;20060;-63
2021/12/10 12:36:52;;;;;;;1.63;0.60;;;5.00;94.40;;;;;;10345907;28;20119;-61
2021/12/10 12:41:56;;;;;;;2.50;0.70;;;4.90;94.70;;;;;;10344679;28;20102;-61
2021/12/10 12:47:03;;;;;;;2.42;0.82;;;5.00;94.70;;;;;;10346492;28;20050;-63
2021/12/10 12:52:31;;;;;;;2.63;0.77;;;5.00;94.10;;;;;;10345264;28;20145;-62
2021/12/10 12:58:04;;;;;;;3.65;0.77;;;4.90;93.30;;;;;;10343971;28;20054;-62
2021/12/10 13:03:43;;;;;;;2.85;0.80;;;4.90;94.40;;;;;;10345613;28;20053;-63
2021/12/10 13:09:18;;;;;;;2.50;1.13;;;4.90;94.40;;;;;;10340995;28;20056;-63
2021/12/10 13:14:24;;;;;;;2.45;0.75;;;4.90;94.10;;;;;;10347121;28;20104;-63
2021/12/10 13:19:30;;;;;;;2.55;0.75;;;4.90;93.80;;;;;;10343045;28;20061;-63
2021/12/10 13:24:34;;;;;;;3.38;1.40;;;4.90;94.10;;;;;;10337590;28;20252;-62
2021/12/10 13:29:37;;;;;;;1.80;0.80;;;5.00;94.20;;;;;;10324409;28;20054;-62
2021/12/10 13:34:40;;;;;;;2.50;0.80;;;4.90;93.60;;;;;;10345539;28;20493;-62
2021/12/10 13:39:44;;;;;;;3.95;0.73;;;4.90;93.60;;;;;;10345304;28;20073;-62
2021/12/10 13:44:52;;;;;;;5.05;1.00;;;4.80;93.70;;;;;;10343443;28;20084;-62
2021/12/10 13:50:00;;;;;;;3.70;0.98;;;4.70;94.10;;;;;;10344079;28;20085;-62
2021/12/10 13:55:06;;;;;;;4.35;0.85;;;4.70;94.50;;;;;;10344173;28;20045;-60
2021/12/10 14:00:11;;;;;;;9.10;1.17;;;4.70;94.50;;;;;;10344809;28;20053;-61
2021/12/10 14:05:21;;;;;;;6.57;1.10;;;4.70;94.40;;;;;;10344777;28;20054;-61
2021/12/10 14:10:32;;;;;;;2.65;0.88;;;4.70;94.00;;;;;;10350779;28;20046;-61
2021/12/10 14:15:52;;;;;;;3.70;1.00;;;4.60;93.60;;;;;;10348590;28;20065;-61
2021/12/10 14:21:19;;;;;;;2.85;0.88;;;4.60;93.40;;;;;;10350884;28;20064;-63
2021/12/10 14:26:41;;;;;;;2.30;0.80;;;4.50;93.20;;;;;;10348707;28;20128;-62
2021/12/10 14:32:19;;;;;;;5.22;0.77;;;4.50;93.00;;;;;;10350485;28;20056;-61
2021/12/10 14:37:23;;;;;;;3.67;0.90;;;4.40;93.30;;;;;;10350292;28;20111;-60
2021/12/10 14:43:12;;;;;;;5.63;1.10;;;4.40;92.80;;;;;;10350157;28;20522;-60
2021/12/10 14:48:13;;;;;;;4.18;1.55;;;4.40;93.10;;;;;;10350474;28;20052;-60
2021/12/10 14:53:44;;;;;;;3.67;0.85;;;4.40;93.80;;;;;;10348754;28;20045;-61
2021/12/10 14:59:08;;;;;;;2.72;0.95;;;4.30;94.90;;;;;;10349428;28;20152;-61
2021/12/10 15:04:47;;;;;;;2.45;0.80;;;4.30;96.70;;;;;;10348648;28;20052;-61
2021/12/10 15:10:21;;;;;;;5.15;1.27;;;4.30;99.90;;;;;;10344964;28;20064;-61
2021/12/10 15:15:55;;;;;;;4.90;1.27;;;4.10;99.90;;;;;;10346522;28;20060;-61
2021/12/10 15:21:16;;;;;;;3.35;1.00;;;3.90;99.90;;;;;;10346980;28;20052;-61
2021/12/10 15:26:18;;;;;;;5.30;1.60;;;3.80;99.90;;;;;;10347866;28;20108;-61
2021/12/10 15:31:21;;;;;;;2.20;0.93;;;3.60;99.90;;;;;;10350098;28;20081;-62
2021/12/10 15:36:24;;;;;;;3.53;1.25;;;3.50;99.90;;;;;;10349340;28;20048;-62
2021/12/10 15:41:37;;;;;;;2.53;1.10;;;3.50;99.90;;;;;;10351916;28;20075;-62
2021/12/10 15:46:47;;;;;;;4.78;1.20;;;3.30;99.90;;;;;;10347986;28;20132;-61
2021/12/10 15:51:56;;;;;;;3.15;1.15;;;3.20;99.90;;;;;;10344202;28;20049;-61
2021/12/10 15:57:16;;;;;;;4.00;1.77;;;3.20;99.90;;;;;;10347261;28;20070;-60
2021/12/10 16:02:22;;;;;;;10.32;2.00;;;3.00;99.90;;;;;;10346287;28;20057;-61
2021/12/10 16:07:30;;;;;;;6.50;1.73;;;3.00;99.90;;;;;;10347450;28;20420;-61
2021/12/10 16:12:32;;;;;;;4.35;1.40;;;2.90;99.90;;;;;;10341779;28;20470;-61
2021/12/10 16:17:34;;;;;;;7.65;1.85;;;2.80;99.90;;;;;;10345027;28;20579;-60
2021/12/10 16:22:36;;;;;;;5.35;1.95;;;2.80;99.90;;;;;;10347500;28;20081;-61
2021/12/10 16:27:49;;;;;;;5.15;2.40;;;2.70;99.90;;;;;;10347280;28;20073;-61
2021/12/10 16:32:54;;;;;;;5.35;2.70;;;2.60;99.90;;;;;;10346635;28;20053;-61
2021/12/10 16:37:58;;;;;;;6.47;2.08;;;2.60;99.90;;;;;;10344597;28;20062;-60
2021/12/10 16:43:05;;;;;;;4.82;2.40;;;2.60;99.90;;;;;;10341991;28;20073;-60
2021/12/10 16:48:17;;;;;;;10.77;2.83;;;2.60;99.90;;;;;;10322741;28;20354;-60
2021/12/10 16:53:20;;;;;;;5.38;2.13;;;2.60;99.90;;;;;;10328273;28;20076;-59
2021/12/10 16:58:22;;;;;;;6.65;1.92;;;2.60;99.90;;;;;;10346611;28;20131;-60
2021/12/10 17:03:29;;;;;;;4.78;2.35;;;2.50;99.90;;;;;;10345623;28;20085;-60
2021/12/10 17:08:34;;;;;;;14.65;4.57;;;2.50;99.90;;;;;;10345058;28;20116;-60
2021/12/10 17:13:47;;;;;;;11.80;3.88;;;2.40;99.90;;;;;;10319106;28;20100;-59
2021/12/10 17:18:52;;;;;;;6.40;3.70;;;2.40;99.90;;;;;;10342723;28;20115;-60
2021/12/10 17:23:56;;;;;;;10.07;3.22;;;2.50;99.90;;;;;;10345394;28;20073;-59
2021/12/10 17:29:03;;;;;;;10.52;3.78;;;2.40;99.90;;;;;;10341724;28;20071;-60
2021/12/10 17:34:11;;;;;;;8.95;2.60;;;2.40;99.90;;;;;;10344307;28;20104;-61
2021/12/10 17:39:30;;;;;;;7.65;3.20;;;2.30;99.90;;;;;;10344128;28;20050;-60
2021/12/10 17:44:33;;;;;;;7.30;2.42;;;2.40;99.90;;;;;;10350357;28;20112;-60
2021/12/10 17:49:40;;;;;;;14.93;4.25;;;2.40;99.90;;;;;;10351199;28;20397;-60
2021/12/10 17:54:50;;;;;;;7.50;3.03;;;2.40;99.90;;;;;;10354198;28;20112;-59
2021/12/10 17:59:53;;;;;;;7.25;2.35;;;2.30;99.90;;;;;;10349876;28;20066;-58
2021/12/10 18:04:56;;;;;;;9.10;2.25;;;2.40;99.90;;;;;;10350247;28;20121;-59
2021/12/10 18:09:58;;;;;;;9.45;3.55;;;2.30;99.90;;;;;;10327524;28;20127;-60
2021/12/10 18:15:06;;;;;;;7.22;2.70;;;2.30;99.90;;;;;;10334462;28;20041;-60
2021/12/10 18:20:15;;;;;;;11.10;3.75;;;2.30;99.90;;;;;;10351071;28;20061;-61
2021/12/10 18:25:22;;;;;;;10.73;2.95;;;2.30;99.90;;;;;;10353543;28;20393;-61
2021/12/10 18:30:26;;;;;;;10.37;3.30;;;2.30;99.90;;;;;;10351817;28;20053;-61
2021/12/10 18:35:32;;;;;;;8.00;4.05;;;2.20;99.90;;;;;;10352691;28;20065;-61
2021/12/10 18:40:36;;;;;;;9.27;4.00;;;2.30;99.90;;;;;;10350373;28;20077;-60
2021/12/10 18:46:04;;;;;;;16.30;3.78;;;2.30;99.90;;;;;;10327409;28;20069;-61
2021/12/10 18:51:11;;;;;;;10.25;3.97;;;2.30;99.90;;;;;;10346052;28;20103;-61
2021/12/10 18:56:18;;;;;;;6.83;3.10;;;2.30;99.90;;;;;;10349424;28;20111;-61
2021/12/10 19:01:32;;;;;;;10.20;3.72;;;2.30;99.90;;;;;;10349675;28;20108;-61
2021/12/10 19:06:40;;;;;;;14.73;4.68;;;2.30;99.90;;;;;;10348053;28;20046;-60
2021/12/10 19:11:45;;;;;;;13.52;5.28;;;2.30;99.90;;;;;;10347293;28;20108;-60
2021/12/10 19:17:13;;;;;;;11.23;5.55;;;2.30;99.90;;;;;;10348675;28;20808;-61
2021/12/10 19:22:24;;;;;;;13.50;4.82;;;2.30;99.90;;;;;;10340670;28;20180;-60
2021/12/10 19:27:35;;;;;;;14.60;5.63;;;2.40;99.90;;;;;;10349503;28;20049;-61
2021/12/10 19:32:45;;;;;;;13.40;5.13;;;2.40;99.90;;;;;;10318215;23;20456;-93
2021/12/10 19:38:40;;;;;;;13.70;5.57;;;2.40;99.90;;;;;;10077441;28;20819;-93
2021/12/10 19:44:02;;;;;;;16.25;6.25;;;2.40;99.90;;;;;;10068476;28;20071;-93
2021/12/10 19:49:54;;;;;;;15.30;5.97;;;2.50;99.90;;;;;;10141020;28;20388;-93
2021/12/10 19:55:47;;;;;;;13.13;5.80;;;2.50;99.90;;;;;;10127506;28;20055;-93
2021/12/10 20:01:45;;;;;;;16.63;6.32;;;2.50;99.90;;;;;;9951974;28;20054;-93
2021/12/10 20:07:05;;;;;;;10.90;5.47;;;2.60;99.90;;;;;;10038842;28;20448;-93
2021/12/10 20:13:24;;;;;;;13.25;4.80;;;2.50;99.90;;;;;;9991307;28;20042;-93
2021/12/10 20:19:04;;;;;;;14.10;5.03;;;2.60;99.90;;;;;;9963421;28;20051;-93
2021/12/10 20:24:21;;;;;;;;;;;2.60;99.90;;;;;;9964340;28;20090;-93
2021/12/10 20:29:52;;;;;;;17.33;5.43;;;2.60;99.90;;;;;;10111785;28;19953;-93
2021/12/10 20:35:12;;;;;;;14.50;4.72;;;2.60;99.90;;;;;;10229292;28;20046;-93
2021/12/10 20:40:30;;;;;;;15.95;6.03;;;2.70;99.90;;;;;;10210304;28;20540;-93
2021/12/10 20:45:55;;;;;;;12.18;5.88;;;2.70;99.90;;;;;;10059069;28;20101;-93
2021/12/10 20:51:10;;;;;;;14.88;6.32;;;2.70;99.90;;;;;;10087422;28;20043;-93
2021/12/10 20:56:50;;;;;;;15.50;7.22;;;2.70;99.90;;;;;;10029494;28;20047;-93
2021/12/10 21:02:48;;;;;;;13.80;5.15;;;2.70;99.90;;;;;;10030356;28;20091;-93
2021/12/10 21:08:57;;;;;;;15.20;6.13;;;2.70;99.90;;;;;;10001049;28;20545;-93
2021/12/10 21:14:42;;;;;;;16.83;6.47;;;2.80;99.90;;;;;;9866177;29;20052;-93
2021/12/10 21:19:56;;;;;;;13.48;6.05;;;2.70;99.90;;;;;;9868022;29;20410;-93
2021/12/10 21:25:39;;;;;;;14.18;4.82;;;2.70;99.90;;;;;;10469924;27;20383;-57
2021/12/10 21:30:50;;;;;;;15.75;5.47;;;2.70;99.90;;;;;;10475051;28;20072;-57
2021/12/10 21:35:58;;;;;;;13.18;5.95;;;2.70;99.90;;;;;;10463316;28;20041;-58
2021/12/10 21:41:16;;;;;;;17.38;5.53;;;2.70;99.90;;;;;;10467396;28;20734;-58
2021/12/10 21:46:35;;;;;;;14.30;6.07;;;2.70;99.90;;;;;;10477449;28;20127;-59
2021/12/10 21:51:48;;;;;;;16.58;5.50;;;2.70;99.90;;;;;;10475435;28;20055;-59
2021/12/10 21:56:56;;;;;;;16.05;6.20;;;2.70;99.90;;;;;;10469093;28;20069;-59
2021/12/10 22:02:03;;;;;;;17.88;6.65;;;2.80;99.90;;;;;;10458919;28;20098;-59
2021/12/10 22:07:12;;;;;;;18.83;6.78;;;2.80;99.90;;;;;;10476186;28;20144;-58
2021/12/10 22:12:28;;;;;;;20.05;6.90;;;2.90;99.90;;;;;;10471763;28;20053;-58
2021/12/10 22:17:53;;;;;;;19.88;6.85;;;2.80;99.90;;;;;;10481229;28;20452;-60
2021/12/10 22:23:17;;;;;;;20.08;6.63;;;2.90;99.90;;;;;;10481929;28;20048;-59
2021/12/10 22:28:34;;;;;;;16.00;6.38;;;2.90;99.90;;;;;;10464880;28;20136;-58
2021/12/10 22:33:37;;;;;;;16.88;5.65;;;2.90;99.90;;;;;;10460176;28;20045;-58
2021/12/10 22:38:46;;;;;;;12.88;5.60;;;2.90;99.90;;;;;;10463791;28;20049;-58
2021/12/10 22:43:56;;;;;;;17.90;6.32;;;2.90;99.90;;;;;;10460972;28;20048;-58
2021/12/10 22:49:09;;;;;;;18.80;7.03;;;3.00;99.90;;;;;;10450267;28;20048;-58
2021/12/10 22:54:18;;;;;;;20.42;7.00;;;3.00;99.90;;;;;;10455727;28;20729;-59
2021/12/10 22:59:32;;;;;;;20.52;6.28;;;3.00;99.90;;;;;;10440170;28;20078;-59
2021/12/10 23:04:42;;;;;;;18.17;6.28;;;2.90;99.90;;;;;;10440794;28;20208;-59
2021/12/10 23:09:51;;;;;;;15.77;6.18;;;2.90;99.90;;;;;;10455403;28;20056;-58
2021/12/10 23:15:04;;;;;;;21.38;7.25;;;3.00;99.90;;;;;;10438576;28;20041;-59
2021/12/10 23:20:17;;;;;;;15.05;5.40;;;2.90;99.90;;;;;;10438731;28;20048;-59
2021/12/10 23:25:28;;;;;;;17.48;6.65;;;2.90;99.90;;;;;;10430246;28;20049;-59
2021/12/10 23:30:38;;;;;;;16.05;5.75;;;2.90;99.90;;;;;;10442442;28;20076;-58
2021/12/10 23:35:48;;;;;;;15.75;6.40;;;2.80;99.90;;;;;;10431354;28;20045;-59
2021/12/10 23:40:53;;;;;;;18.45;6.15;;;2.80;99.90;;;;;;10443608;28;20052;-59
2021/12/10 23:46:24;;;;;;;16.20;6.03;;;2.80;99.90;;;;;;10448897;28;20052;-59
2021/12/10 23:51:42;;;;;;;15.07;5.78;;;2.90;99.90;;;;;;10446806;28;20135;-59
2021/12/10 23:56:44;;;;;;;17.75;5.00;;;2.90;99.90;;;;;;10447333;28;20114;-59
